.
WxDataArchive / Data Records for 2010-02-17
2010-02-16 February 2010 2010-02-18

Data Records for Wednesday, 17 February 2010

Time	Temp	Chill	HIndex	Humid	Dewpt	 Wind 	HiWind	WindDir	Rain 	Barom 
-----	----	-----	------	-----	-----	------	------	-------	-----	----- 
00:00	27.3	27.3	27.3	86	23.7	2	3	270	0.00	29.857 
00:05	27.3	27.3	27.3	85	23.4	3	5	270	0.00	29.857 
00:10	27.5	27.5	27.5	85	23.6	2	6	270	0.00	29.857 
00:15	27.5	27.5	27.5	85	23.6	2	5	270	0.00	29.855 
00:20	27.3	27.3	27.3	85	23.4	1	2	292	0.00	29.855 
00:25	27.2	27.2	27.2	85	23.3	1	3	292	0.00	29.855 
00:30	26.9	26.9	26.9	85	23.0	1	3	292	0.00	29.857 
00:35	26.7	26.7	26.7	85	22.8	1	3	292	0.00	29.857 
00:40	26.6	26.6	26.6	85	22.7	1	2	270	0.00	29.857 
00:45	26.3	26.3	26.3	85	22.4	1	3	270	0.00	29.859 
00:50	26.1	26.1	26.1	85	22.2	1	2	270	0.00	29.859 
00:55	26.0	26.0	26.0	85	22.1	1	2	270	0.00	29.859 
01:00	25.8	25.8	25.8	86	22.2	1	2	270	0.00	29.858 
01:05	25.8	25.8	25.8	86	22.2	1	4	248	0.00	29.858 
01:10	25.8	25.8	25.8	86	22.2	1	4	248	0.00	29.858 
01:15	25.7	25.7	25.7	87	22.4	1	3	248	0.00	29.857 
01:20	25.7	25.7	25.7	87	22.4	1	3	248	0.00	29.857 
01:25	25.6	25.6	25.6	87	22.3	1	2	248	0.00	29.857 
01:30	25.6	25.6	25.6	87	22.3	1	2	248	0.00	29.856 
01:35	25.4	25.4	25.4	87	22.1	1	2	248	0.00	29.856 
01:40	25.4	25.4	25.4	88	22.4	1	2	248	0.00	29.856 
01:45	25.6	25.6	25.6	88	22.5	1	2	248	0.00	29.856 
01:50	25.6	25.6	25.6	88	22.5	1	3	248	0.00	29.856 
01:55	25.6	25.6	25.6	88	22.5	1	4	270	0.00	29.856 
02:00	25.6	25.6	25.6	88	22.5	0	1	270	0.00	29.856 
02:05	25.4	25.4	25.4	88	22.4	0	2	270	0.00	29.856 
02:10	25.6	25.6	25.6	88	22.5	0	3	270	0.00	29.856 
02:15	25.6	25.6	25.6	89	22.8	1	3	270	0.00	29.856 
02:20	25.7	25.7	25.7	89	22.9	1	2	248	0.00	29.856 
02:25	25.7	25.7	25.7	89	22.9	1	3	270	0.00	29.856 
02:30	25.8	25.8	25.8	89	23.0	1	3	270	0.00	29.857 
02:35	25.8	25.8	25.8	89	23.0	1	3	270	0.00	29.857 
02:40	25.8	25.8	25.8	89	23.0	1	4	248	0.00	29.857 
02:45	26.0	26.0	26.0	89	23.2	1	3	248	0.00	29.855 
02:50	26.0	26.0	26.0	89	23.2	1	3	248	0.00	29.855 
02:55	26.0	26.0	26.0	89	23.2	1	3	248	0.00	29.855 
03:00	26.0	26.0	26.0	89	23.2	1	4	248	0.00	29.852 
03:05	26.0	26.0	26.0	89	23.2	1	3	292	0.00	29.852 
03:10	26.1	26.1	26.1	89	23.3	1	3	292	0.00	29.852 
03:15	26.1	26.1	26.1	89	23.3	1	4	292	0.00	29.849 
03:20	26.1	26.1	26.1	89	23.3	1	3	248	0.00	29.849 
03:25	26.3	26.3	26.3	89	23.5	2	4	248	0.00	29.849 
03:30	26.3	26.3	26.3	89	23.5	1	3	248	0.00	29.849 
03:35	26.3	26.3	26.3	89	23.5	1	3	248	0.00	29.849 
03:40	26.3	26.3	26.3	89	23.5	2	4	248	0.00	29.849 
03:45	26.3	26.3	26.3	90	23.8	1	3	248	0.00	29.850 
03:50	26.3	26.3	26.3	90	23.8	2	4	248	0.00	29.850 
03:55	26.3	26.3	26.3	90	23.8	1	3	270	0.00	29.850 
04:00	26.3	26.3	26.3	90	23.8	1	3	270	0.00	29.847 
04:05	26.3	26.3	26.3	90	23.8	1	3	270	0.00	29.847 
04:10	26.3	26.3	26.3	91	24.0	1	3	270	0.00	29.847 
04:15	26.4	26.4	26.4	91	24.1	1	3	270	0.00	29.853 
04:20	26.4	26.4	26.4	91	24.1	1	3	292	0.00	29.853 
04:25	26.4	26.4	26.4	91	24.1	1	4	270	0.00	29.853 
04:30	26.6	26.6	26.6	91	24.3	1	3	270	0.00	29.854 
04:35	26.6	26.6	26.6	91	24.3	1	3	270	0.00	29.854 
04:40	26.7	26.7	26.7	92	24.7	1	3	248	0.00	29.854 
04:45	26.7	26.7	26.7	92	24.7	1	2	248	0.00	29.856 
04:50	26.7	26.7	26.7	92	24.7	1	3	292	0.00	29.856 
04:55	26.9	26.9	26.9	92	24.9	1	3	292	0.00	29.856 
05:00	26.9	26.9	26.9	92	24.9	1	3	292	0.00	29.857 
05:05	27.0	27.0	27.0	92	25.0	1	2	292	0.00	29.857 
05:10	27.0	27.0	27.0	92	25.0	0	3	315	0.00	29.857 
05:15	27.2	27.2	27.2	92	25.2	1	3	315	0.00	29.857 
05:20	27.2	27.2	27.2	92	25.2	1	2	248	0.00	29.857 
05:25	27.2	27.2	27.2	92	25.2	1	4	248	0.00	29.857 
05:30	27.2	27.2	27.2	92	25.2	0	2	248	0.00	29.857 
05:35	27.3	27.3	27.3	93	25.5	0	2	248	0.00	29.857 
05:40	27.3	27.3	27.3	93	25.5	1	2	248	0.00	29.857 
05:45	27.3	27.3	27.3	93	25.5	1	3	248	0.00	29.856 
05:50	27.3	27.3	27.3	93	25.5	1	3	248	0.00	29.856 
05:55	27.3	27.3	27.3	93	25.5	1	3	248	0.00	29.856 
06:00	27.3	27.3	27.3	93	25.5	0	2	248	0.00	29.857 
06:05	27.3	27.3	27.3	93	25.5	0	2	248	0.00	29.857 
06:10	27.3	27.3	27.3	93	25.5	0	1	248	0.00	29.857 
06:15	27.3	27.3	27.3	93	25.5	0	1	248	0.00	29.862 
06:20	27.3	27.3	27.3	93	25.5	0	1	248	0.00	29.862 
06:25	27.5	27.5	27.5	93	25.7	0	1	248	0.00	29.862 
06:30	27.5	27.5	27.5	93	25.7	0	2	248	0.00	29.863 
06:35	27.5	27.5	27.5	93	25.7	0	1	248	0.00	29.863 
06:40	27.6	27.6	27.6	93	25.8	0	2	248	0.00	29.863 
06:45	27.6	27.6	27.6	93	25.8	0	1	248	0.00	29.866 
06:50	27.6	27.6	27.6	93	25.8	0	1	248	0.00	29.866 
06:55	27.6	27.6	27.6	93	25.8	0	2	248	0.00	29.866 
07:00	27.6	27.6	27.6	93	25.8	0	3	248	0.00	29.871 
07:05	27.8	27.8	27.8	93	26.0	0	2	248	0.00	29.871 
07:10	27.8	27.8	27.8	93	26.0	0	1	248	0.00	29.871 
07:15	27.8	27.8	27.8	93	26.0	0	1	248	0.00	29.872 
07:20	27.8	27.8	27.8	93	26.0	0	1	248	0.00	29.872 
07:25	27.8	27.8	27.8	93	26.0	0	1	248	0.00	29.872 
07:30	27.8	27.8	27.8	93	26.0	0	1	248	0.00	29.873 
07:35	27.8	27.8	27.8	93	26.0	0	1	248	0.00	29.873 
07:40	27.9	27.9	27.9	94	26.4	0	1	248	0.00	29.873 
07:45	27.9	27.9	27.9	94	26.4	0	1	248	0.00	29.876 
07:50	27.9	27.9	27.9	94	26.4	0	1	248	0.00	29.876 
07:55	27.9	27.9	27.9	94	26.4	0	2	248	0.00	29.876 
08:00	28.1	28.1	28.1	94	26.6	1	2	248	0.00	29.880 
08:05	28.1	28.1	28.1	94	26.6	0	1	248	0.00	29.880 
08:10	28.1	28.1	28.1	94	26.6	0	3	248	0.00	29.880 
08:15	28.2	28.2	28.2	94	26.7	0	1	248	0.00	29.886 
08:20	28.2	28.2	28.2	94	26.7	0	1	248	0.00	29.886 
08:25	28.2	28.2	28.2	94	26.7	0	3	248	0.00	29.886 
08:30	28.4	28.4	28.4	94	26.9	0	1	248	0.00	29.887 
08:35	28.4	28.4	28.4	94	26.9	0	2	248	0.00	29.887 
08:40	28.5	28.5	28.5	94	27.0	0	1	248	0.00	29.887 
08:45	28.7	28.7	28.7	94	27.2	0	1	248	0.00	29.889 
08:50	28.8	28.8	28.8	94	27.3	0	1	248	0.00	29.889 
08:55	29.0	29.0	29.0	94	27.5	0	1	248	0.00	29.889 
09:00	29.1	29.1	29.1	94	27.6	0	2	248	0.00	29.889 
09:05	29.1	29.1	29.1	94	27.6	0	1	248	0.00	29.889 
09:10	29.3	29.3	29.3	94	27.8	0	2	248	0.00	29.889 
09:15	29.3	29.3	29.3	94	27.8	1	2	248	0.00	29.889 
09:20	29.4	29.4	29.4	94	27.9	0	3	338	0.00	29.889 
09:25	29.5	29.5	29.5	94	28.0	0	1	338	0.00	29.889 
09:30	29.7	29.7	29.7	94	28.2	0	3	338	0.00	29.889 
09:35	29.7	29.7	29.7	93	27.9	0	2	315	0.00	29.889 
09:40	29.7	29.7	29.7	93	27.9	0	2	315	0.00	29.889 
09:45	30.0	30.0	30.0	93	28.2	0	1	315	0.00	29.888 
09:50	30.1	30.1	30.1	93	28.3	0	2	315	0.00	29.888 
09:55	30.4	30.4	30.4	93	28.6	0	2	270	0.00	29.888 
10:00	30.4	30.4	30.4	92	28.4	0	2	315	0.00	29.889 
10:05	30.4	30.4	30.4	92	28.4	0	2	270	0.00	29.889 
10:10	30.6	30.6	30.6	92	28.6	0	2	270	0.00	29.889 
10:15	30.6	30.6	30.6	92	28.6	1	3	0	0.00	29.890 
10:20	30.7	30.7	30.7	92	28.7	0	3	0	0.00	29.890 
10:25	31.0	31.0	31.0	92	29.0	1	3	338	0.00	29.890 
10:30	31.2	31.2	31.2	92	29.2	1	3	270	0.00	29.892 
10:35	31.2	31.2	31.2	92	29.2	1	3	292	0.00	29.892 
10:40	31.3	31.3	31.3	92	29.3	1	3	270	0.00	29.892 
10:45	31.2	31.2	31.2	92	29.2	2	5	292	0.00	29.894 
10:50	31.2	31.2	31.2	92	29.2	1	4	292	0.00	29.894 
10:55	31.3	31.3	31.3	92	29.3	1	3	292	0.00	29.894 
11:00	31.5	31.5	31.5	92	29.4	1	3	270	0.00	29.894 
11:05	31.6	31.6	31.6	92	29.5	1	3	270	0.00	29.894 
11:10	31.8	31.8	31.8	92	29.7	0	2	338	0.00	29.894 
11:15	31.9	31.9	31.9	92	29.8	1	3	338	0.00	29.895 
11:20	31.8	31.8	31.8	92	29.7	2	5	248	0.00	29.895 
11:25	31.6	31.6	31.6	92	29.5	1	3	270	0.00	29.895 
11:30	31.6	31.6	31.6	92	29.5	2	3	270	0.00	29.897 
11:35	31.5	31.5	31.5	92	29.4	1	4	315	0.00	29.897 
11:40	31.3	31.3	31.3	91	29.0	2	5	248	0.00	29.897 
11:45	31.3	31.3	31.3	91	29.0	2	4	338	0.00	29.898 
11:50	31.5	31.5	31.5	91	29.2	2	5	270	0.00	29.898 
11:55	31.5	31.5	31.5	91	29.2	2	5	292	0.00	29.898 
12:00	31.6	31.6	31.6	91	29.3	2	4	270	0.00	29.893 
12:05	31.8	31.8	31.8	91	29.5	1	4	248	0.00	29.893 
12:10	31.9	31.9	31.9	91	29.6	1	2	338	0.00	29.893 
12:15	31.9	31.9	31.9	90	29.3	2	5	338	0.00	29.888 
12:20	31.9	31.9	31.9	90	29.3	2	6	270	0.00	29.888 
12:25	32.1	32.1	32.1	89	29.2	2	6	270	0.00	29.888 
12:30	32.4	32.4	32.4	88	29.3	3	5	270	0.00	29.887 
12:35	32.5	32.5	32.5	88	29.3	2	4	270	0.00	29.887 
12:40	32.8	32.8	32.8	87	29.4	2	5	270	0.00	29.887 
12:45	32.4	32.4	32.4	87	29.0	3	6	270	0.00	29.886 
12:50	32.7	32.7	32.7	88	29.5	2	5	270	0.00	29.886 
12:55	32.9	32.9	32.9	87	29.5	3	5	270	0.00	29.886 
13:00	33.1	33.1	33.1	87	29.7	2	4	292	0.00	29.883 
13:05	33.2	33.2	33.2	86	29.5	3	5	270	0.00	29.883 
13:10	33.4	33.4	33.4	85	29.4	2	5	270	0.00	29.883 
13:15	33.5	33.5	33.5	84	29.2	3	5	270	0.00	29.880 
13:20	33.5	33.5	33.5	84	29.2	2	6	270	0.00	29.880 
13:25	33.4	33.4	33.4	84	29.1	2	5	270	0.00	29.880 
13:30	33.5	33.5	33.5	83	28.9	2	4	270	0.00	29.877 
13:35	33.5	33.5	33.5	82	28.6	3	5	270	0.00	29.877 
13:40	33.7	33.7	33.7	81	28.5	2	5	270	0.00	29.877 
13:45	33.8	33.8	33.8	80	28.3	2	4	248	0.00	29.875 
13:50	33.8	33.8	33.8	78	27.7	3	5	270	0.00	29.875 
13:55	33.8	33.8	33.8	77	27.4	3	7	315	0.00	29.875 
14:00	34.1	34.1	34.1	77	27.7	3	6	270	0.00	29.870 
14:05	34.3	34.3	34.3	77	27.9	2	5	270	0.00	29.870 
14:10	34.3	34.3	34.3	76	27.5	3	5	270	0.00	29.870 
14:15	34.1	34.1	34.1	75	27.0	3	6	270	0.00	29.869 
14:20	34.0	34.0	34.0	75	26.9	3	7	270	0.00	29.869 
14:25	33.7	30.0	33.7	75	26.6	4	9	270	0.00	29.869 
14:30	33.4	29.7	33.4	76	26.7	4	6	270	0.00	29.870 
14:35	33.1	29.3	33.1	77	26.7	4	7	270	0.00	29.870 
14:40	33.1	33.1	33.1	77	26.7	3	6	270	0.00	29.870 
14:45	32.8	28.0	32.8	77	26.4	5	7	270	0.00	29.872 
14:50	32.9	32.9	32.9	77	26.5	3	7	270	0.00	29.872 
14:55	33.2	33.2	33.2	76	26.5	2	4	292	0.00	29.872 
15:00	33.4	29.7	33.4	76	26.7	4	8	270	0.00	29.874 
15:05	33.4	33.4	33.4	75	26.3	3	6	270	0.00	29.874 
15:10	33.2	29.5	33.2	74	25.8	4	7	270	0.00	29.874 
15:15	33.1	33.1	33.1	74	25.7	3	7	270	0.00	29.875 
15:20	32.9	32.9	32.9	75	25.9	3	7	270	0.00	29.875 
15:25	32.7	28.9	32.7	75	25.7	4	10	270	0.00	29.875 
15:30	32.5	32.5	32.5	75	25.5	3	9	270	0.00	29.878 
15:35	32.4	32.4	32.4	76	25.7	3	7	270	0.00	29.878 
15:40	32.2	32.2	32.2	76	25.5	3	6	270	0.00	29.878 
15:45	32.2	32.2	32.2	77	25.8	2	5	270	0.00	29.883 
15:50	32.1	32.1	32.1	77	25.7	3	5	270	0.00	29.883 
15:55	32.1	32.1	32.1	77	25.7	3	6	292	0.00	29.883 
16:00	32.2	32.2	32.2	77	25.8	2	7	270	0.00	29.886 
16:05	32.4	32.4	32.4	76	25.7	3	5	270	0.00	29.886 
16:10	32.4	32.4	32.4	76	25.7	3	5	270	0.00	29.886 
16:15	32.4	32.4	32.4	77	26.0	2	5	270	0.00	29.886 
16:20	32.2	32.2	32.2	77	25.8	3	5	270	0.00	29.886 
16:25	32.1	32.1	32.1	77	25.7	2	6	270	0.00	29.886 
16:30	31.9	31.9	31.9	77	25.5	2	5	270	0.00	29.889 
16:35	31.8	27.8	31.8	77	25.4	4	6	270	0.00	29.889 
16:40	31.8	31.8	31.8	77	25.4	3	7	270	0.00	29.889 
16:45	31.8	31.8	31.8	77	25.4	3	5	270	0.00	29.892 
16:50	31.8	31.8	31.8	77	25.4	2	6	270	0.00	29.892 
16:55	31.6	31.6	31.6	77	25.2	3	6	270	0.00	29.892 
17:00	31.6	31.6	31.6	77	25.2	2	4	248	0.00	29.892 
17:05	31.6	31.6	31.6	77	25.2	3	6	270	0.00	29.892 
17:10	31.6	31.6	31.6	77	25.2	2	5	270	0.00	29.892 
17:15	31.5	27.5	31.5	77	25.1	4	7	270	0.00	29.895 
17:20	31.5	31.5	31.5	77	25.1	3	7	270	0.00	29.895 
17:25	31.3	31.3	31.3	78	25.3	3	5	292	0.00	29.895 
17:30	31.2	31.2	31.2	79	25.5	3	5	270	0.00	29.902 
17:35	31.0	31.0	31.0	80	25.6	3	5	292	0.00	29.902 
17:40	30.9	30.9	30.9	80	25.5	3	5	270	0.00	29.902 
17:45	30.9	30.9	30.9	80	25.5	2	5	292	0.00	29.903 
17:50	30.9	30.9	30.9	79	25.2	3	5	270	0.00	29.903 
17:55	30.9	30.9	30.9	79	25.2	3	4	270	0.00	29.903 
18:00	30.9	30.9	30.9	79	25.2	3	6	270	0.00	29.906 
18:05	30.4	26.2	30.4	82	25.6	4	7	270	0.00	29.906 
18:10	30.0	30.0	30.0	84	25.8	2	4	270	0.00	29.906 
18:15	29.7	29.7	29.7	86	26.0	2	4	270	0.00	29.910 
18:20	29.7	29.7	29.7	86	26.0	2	4	270	0.00	29.910 
18:25	29.7	29.7	29.7	86	26.0	2	5	270	0.00	29.910 
18:30	29.8	29.8	29.8	85	25.9	2	4	270	0.00	29.916 
18:35	29.8	29.8	29.8	84	25.6	2	4	270	0.00	29.916 
18:40	30.0	30.0	30.0	84	25.8	2	3	270	0.00	29.916 
18:45	30.0	30.0	30.0	83	25.5	2	4	270	0.00	29.918 
18:50	30.1	30.1	30.1	82	25.3	2	6	270	0.00	29.918 
18:55	30.1	30.1	30.1	81	25.0	2	4	248	0.00	29.918 
19:00	30.1	30.1	30.1	81	25.0	3	5	270	0.00	29.921 
19:05	30.1	30.1	30.1	80	24.7	2	4	270	0.00	29.921 
19:10	30.1	30.1	30.1	79	24.4	2	4	270	0.00	29.921 
19:15	30.1	30.1	30.1	79	24.4	3	6	270	0.00	29.929 
19:20	30.1	30.1	30.1	78	24.1	3	6	270	0.00	29.929 
19:25	30.1	30.1	30.1	78	24.1	3	7	270	0.00	29.929 
19:30	30.1	30.1	30.1	78	24.1	2	4	270	0.00	29.932 
19:35	30.1	30.1	30.1	77	23.8	2	6	315	0.00	29.932 
19:40	30.1	30.1	30.1	77	23.8	2	5	292	0.00	29.932 
19:45	30.1	30.1	30.1	76	23.5	2	5	292	0.00	29.934 
19:50	30.1	30.1	30.1	76	23.5	2	5	270	0.00	29.934 
19:55	30.3	30.3	30.3	76	23.7	2	4	270	0.00	29.934 
20:00	30.1	30.1	30.1	76	23.5	2	5	292	0.00	29.935 
20:05	30.1	30.1	30.1	76	23.5	2	4	225	0.00	29.935 
20:10	30.1	30.1	30.1	76	23.5	2	5	292	0.00	29.935 
20:15	30.1	30.1	30.1	76	23.5	2	5	270	0.00	29.940 
20:20	30.1	30.1	30.1	77	23.8	3	7	270	0.00	29.940 
20:25	30.0	30.0	30.0	77	23.7	2	5	292	0.00	29.940 
20:30	30.0	30.0	30.0	77	23.7	2	6	248	0.00	29.937 
20:35	30.0	30.0	30.0	78	24.0	3	6	292	0.00	29.937 
20:40	30.0	30.0	30.0	78	24.0	3	5	270	0.00	29.937 
20:45	30.0	30.0	30.0	78	24.0	2	6	270	0.00	29.940 
20:50	29.8	29.8	29.8	79	24.1	2	5	270	0.00	29.940 
20:55	29.8	29.8	29.8	80	24.4	3	4	270	0.00	29.940 
21:00	29.8	29.8	29.8	80	24.4	3	6	248	0.00	29.941 
21:05	29.7	29.7	29.7	80	24.3	2	4	270	0.00	29.941 
21:10	29.7	29.7	29.7	81	24.6	2	4	270	0.00	29.941 
21:15	29.7	29.7	29.7	81	24.6	2	4	248	0.00	29.938 
21:20	29.5	29.5	29.5	82	24.7	3	5	270	0.00	29.938 
21:25	29.4	29.4	29.4	83	24.9	2	4	270	0.00	29.938 
21:30	29.4	29.4	29.4	84	25.2	2	4	270	0.00	29.945 
21:35	29.4	29.4	29.4	84	25.2	2	5	270	0.00	29.945 
21:40	29.3	29.3	29.3	85	25.4	2	4	270	0.00	29.945 
21:45	29.3	29.3	29.3	85	25.4	2	4	270	0.00	29.947 
21:50	29.3	29.3	29.3	86	25.6	2	4	270	0.00	29.947 
21:55	29.1	29.1	29.1	86	25.4	2	5	270	0.00	29.947 
22:00	29.1	29.1	29.1	87	25.7	2	4	270	0.00	29.946 
22:05	29.1	29.1	29.1	87	25.7	2	3	270	0.00	29.946 
22:10	29.1	29.1	29.1	87	25.7	2	4	270	0.00	29.946 
22:15	29.1	29.1	29.1	88	26.0	2	5	270	0.00	29.940 
22:20	29.1	29.1	29.1	88	26.0	2	4	248	0.00	29.940 
22:25	29.1	29.1	29.1	88	26.0	2	6	292	0.00	29.940 
22:30	29.1	29.1	29.1	88	26.0	3	6	270	0.00	29.944 
22:35	29.3	29.3	29.3	87	25.9	2	4	270	0.00	29.944 
22:40	29.3	29.3	29.3	87	25.9	2	4	248	0.00	29.944 
22:45	29.3	29.3	29.3	87	25.9	2	5	248	0.00	29.944 
22:50	29.4	29.4	29.4	87	26.0	2	4	248	0.00	29.944 
22:55	29.3	29.3	29.3	87	25.9	2	7	270	0.00	29.944 
23:00	29.3	29.3	29.3	87	25.9	2	5	270	0.00	29.943 
23:05	29.3	29.3	29.3	87	25.9	2	5	248	0.00	29.943 
23:10	29.3	29.3	29.3	87	25.9	3	11	270	0.00	29.943 
23:15	29.4	29.4	29.4	87	26.0	3	5	270	0.00	29.943 
23:20	29.4	29.4	29.4	86	25.7	2	6	270	0.00	29.943 
23:25	29.5	29.5	29.5	86	25.8	2	6	270	0.00	29.943 
23:30	29.5	29.5	29.5	85	25.6	2	6	270	0.00	29.939 
23:35	29.5	29.5	29.5	85	25.6	2	5	270	0.00	29.939 
23:40	29.5	29.5	29.5	85	25.6	1	4	292	0.00	29.939 
23:45	29.7	29.7	29.7	84	25.5	2	4	270	0.00	29.943 
23:50	29.7	29.7	29.7	84	25.5	2	4	270	0.00	29.943 
23:55	29.7	29.7	29.7	84	25.5	2	4	248	0.00	29.943 

CoCoRaHS
IN-AL-39
A2 Web Hosting
Creative Commons License
GoDaddy
search engine by freefind advanced

loaded 2018-11-17 14:04:11 • last modified 2010-11-18 10:43:29
Privacy PolicyDisclaimer
• wx.awcolley.com is powered by PmWiki v.2002016 •
• all content (unless otherwise noted) © 2018 A W Colley